Terminal Aerodrome Forecast
Issued by NWS

Current Version | Previous Version | Text Only | Print | Product List | Glossary On
Versions: 1 2 3 4 5 6 7 8 9 10 11 12 13 14 15 16
000
FTUS46 KMFR 012334 CCA
TAFRBG
TAF COR
KRBG 012334Z 0200/0224 34003KT P6SM -RA FEW008 OVC022
     FM020600 VRB02KT P6SM -SHRA OVC015=

USA.gov is the U.S. government's official web portal to all federal, state and local government web resources and services.